Time;durP1;ratioP1;P1;durP2;ratioP2;P2;SDS_P1;SDS_P2;PMS_P1;PMS_P2;Temp;Humidity;BMP_temperature;BMP_pressure;BME280_temperature;BME280_humidity;BME280_pressure;Samples;Min_cycle;Max_cycle;Signal;HPM_P1;HPM_P2
2021/09/06 00:01:02;;;;;;;10.15;5.88;;;;;;;19.57;55.46;100440.09;5073984;28;20036;-72
2021/09/06 00:03:28;;;;;;;11.05;5.93;;;;;;;19.54;55.38;100435.13;5068978;28;20104;-72
2021/09/06 00:05:53;;;;;;;13.15;5.75;;;;;;;19.52;55.77;100434.50;5057105;28;20226;-72
2021/09/06 00:08:19;;;;;;;9.75;5.80;;;;;;;19.58;55.80;100433.69;5073639;28;20032;-73
2021/09/06 00:10:46;;;;;;;11.90;6.18;;;;;;;19.69;55.58;100441.13;5069116;28;20028;-72
2021/09/06 00:13:16;;;;;;;10.93;5.45;;;;;;;19.76;55.65;100435.78;5072965;28;20039;-73
2021/09/06 00:15:42;;;;;;;9.75;5.93;;;;;;;19.92;55.41;100434.56;5074869;28;20097;-72
2021/09/06 00:18:08;;;;;;;8.38;5.72;;;;;;;19.94;55.20;100427.97;5072149;28;20704;-72
2021/09/06 00:20:36;;;;;;;11.18;5.72;;;;;;;20.03;55.17;100425.88;5072666;28;20372;-72
2021/09/06 00:23:01;;;;;;;9.35;5.88;;;;;;;20.17;55.15;100434.78;5070474;28;20403;-72
2021/09/06 00:25:27;;;;;;;9.50;6.15;;;;;;;20.20;54.82;100424.44;5067505;28;20060;-72
2021/09/06 00:27:53;;;;;;;9.05;5.47;;;;;;;20.22;55.22;100430.44;5070273;28;20051;-72
2021/09/06 00:30:18;;;;;;;11.02;6.22;;;;;;;20.22;55.38;100429.59;5062004;28;20325;-72
2021/09/06 00:32:44;;;;;;;12.25;5.85;;;;;;;20.29;55.61;100436.63;5070526;28;20090;-72
2021/09/06 00:35:10;;;;;;;8.70;5.68;;;;;;;20.26;55.79;100436.22;5066050;28;20037;-72
2021/09/06 00:37:35;;;;;;;10.18;5.82;;;;;;;20.30;55.62;100432.06;5051273;28;20276;-72
2021/09/06 00:40:01;;;;;;;11.52;6.60;;;;;;;20.38;55.64;100443.44;5054525;28;20028;-72
2021/09/06 00:42:26;;;;;;;9.88;5.60;;;;;;;20.36;55.63;100437.44;5071090;28;20364;-72
2021/09/06 00:44:52;;;;;;;9.20;6.15;;;;;;;20.47;55.75;100451.34;5072134;28;20318;-73
2021/09/06 00:47:17;;;;;;;8.85;6.25;;;;;;;20.45;55.66;100448.03;5066659;28;20196;-73
2021/09/06 00:49:43;;;;;;;15.73;6.22;;;;;;;20.33;56.10;100448.63;5069786;28;20214;-72
2021/09/06 00:52:08;;;;;;;12.35;5.82;;;;;;;20.35;56.58;100449.25;5069651;28;20036;-73
2021/09/06 00:54:34;;;;;;;9.32;5.88;;;;;;;20.30;56.62;100445.53;5068898;28;20016;-72
2021/09/06 00:56:59;;;;;;;10.55;6.13;;;;;;;20.30;56.78;100438.28;5071155;28;20040;-73
2021/09/06 00:59:25;;;;;;;8.45;6.00;;;;;;;20.27;57.20;100459.38;5073172;28;20036;-72
2021/09/06 01:01:50;;;;;;;8.60;5.90;;;;;;;20.21;57.25;100452.16;5067226;28;20048;-73
2021/09/06 01:04:16;;;;;;;12.38;6.63;;;;;;;20.20;56.69;100456.69;5067324;28;20029;-72
2021/09/06 01:06:41;;;;;;;11.45;6.93;;;;;;;19.82;57.49;100461.03;5076626;28;20032;-72
2021/09/06 01:09:07;;;;;;;14.70;7.00;;;;;;;19.74;57.73;100464.69;5075045;28;20040;-72
2021/09/06 01:11:32;;;;;;;14.32;6.50;;;;;;;19.55;58.46;100469.00;5077642;28;20222;-72
2021/09/06 01:13:58;;;;;;;11.13;6.65;;;;;;;19.41;58.51;100453.84;5074648;28;20040;-72
2021/09/06 01:16:24;;;;;;;12.80;7.35;;;;;;;19.40;58.88;100461.09;5068984;28;20033;-72
2021/09/06 01:18:50;;;;;;;13.93;6.95;;;;;;;19.43;58.81;100458.00;5068854;28;20082;-72
2021/09/06 01:21:15;;;;;;;11.00;6.70;;;;;;;19.40;59.04;100441.47;5074726;28;20029;-72
2021/09/06 01:23:41;;;;;;;13.05;6.85;;;;;;;19.57;58.56;100456.19;5073104;28;20046;-72
2021/09/06 01:26:07;;;;;;;11.70;6.68;;;;;;;19.48;59.09;100460.06;5074328;28;20028;-72
2021/09/06 01:28:34;;;;;;;11.70;6.88;;;;;;;19.51;58.85;100453.47;5069936;28;20091;-73
2021/09/06 01:31:00;;;;;;;14.18;7.25;;;;;;;19.50;58.62;100444.59;5080935;28;20040;-72
2021/09/06 01:33:25;;;;;;;12.20;6.60;;;;;;;19.73;58.71;100455.81;5075572;28;20040;-73
2021/09/06 01:35:51;;;;;;;10.70;6.93;;;;;;;19.72;59.00;100464.09;5068188;28;20029;-73
2021/09/06 01:38:16;;;;;;;11.93;6.93;;;;;;;19.68;58.61;100469.03;5079791;28;20032;-72
2021/09/06 01:40:42;;;;;;;18.58;7.28;;;;;;;19.72;58.31;100456.84;5058597;28;20020;-72
2021/09/06 01:43:07;;;;;;;15.40;7.22;;;;;;;19.82;58.23;100458.34;5061224;28;20055;-73
2021/09/06 01:45:33;;;;;;;13.00;7.35;;;;;;;19.82;58.15;100456.47;5073902;28;20098;-72
2021/09/06 01:47:58;;;;;;;14.02;7.40;;;;;;;19.85;58.12;100461.44;5073070;28;20097;-73
2021/09/06 01:50:24;;;;;;;13.10;7.20;;;;;;;19.89;58.08;100468.06;5076504;28;20032;-72
2021/09/06 01:52:50;;;;;;;15.85;7.10;;;;;;;19.85;58.13;100476.75;5075366;28;20241;-72
2021/09/06 01:55:15;;;;;;;11.32;6.50;;;;;;;19.82;58.34;100461.84;5060337;28;20121;-72
2021/09/06 01:57:41;;;;;;;13.57;7.30;;;;;;;19.80;58.45;100463.91;5069386;28;20072;-72
2021/09/06 02:00:07;;;;;;;14.98;7.55;;;;;;;19.86;58.20;100463.09;5076586;28;20033;-72
2021/09/06 02:02:32;;;;;;;11.50;7.50;;;;;;;19.85;58.25;100463.31;5057460;28;20448;-72
2021/09/06 02:04:58;;;;;;;16.67;7.68;;;;;;;19.89;58.07;100470.75;5067346;28;20033;-72
2021/09/06 02:07:23;;;;;;;10.40;6.80;;;;;;;19.95;57.85;100469.94;5071089;28;20348;-73
2021/09/06 02:09:49;;;;;;;12.05;6.95;;;;;;;19.99;58.04;100473.88;5069745;28;20396;-72
2021/09/06 02:12:14;;;;;;;13.00;6.85;;;;;;;19.90;58.45;100475.09;5064990;28;20029;-72
2021/09/06 02:14:40;;;;;;;15.05;6.70;;;;;;;19.88;58.62;100474.47;5052417;28;20203;-72
2021/09/06 02:17:05;;;;;;;9.93;7.10;;;;;;;19.93;58.54;100473.84;5064825;28;20033;-72
2021/09/06 02:19:31;;;;;;;10.63;7.13;;;;;;;19.95;58.25;100461.88;5049182;28;20033;-72
2021/09/06 02:21:56;;;;;;;13.68;7.53;;;;;;;20.04;58.64;100476.75;5064703;28;20112;-72
2021/09/06 02:24:23;;;;;;;11.75;6.45;;;;;;;20.02;58.72;100473.44;5074284;28;20199;-72
2021/09/06 02:26:49;;;;;;;9.32;6.72;;;;;;;19.95;58.95;100467.25;5047895;28;20052;-72
2021/09/06 02:29:15;;;;;;;17.10;7.43;;;;;;;19.82;59.64;100472.59;5076798;28;20025;-72
2021/09/06 02:31:40;;;;;;;13.85;7.38;;;;;;;19.62;60.24;100459.09;5080834;28;20036;-73
2021/09/06 02:34:06;;;;;;;12.95;7.47;;;;;;;19.86;59.80;100473.84;5083192;28;20052;-72
2021/09/06 02:36:32;;;;;;;17.98;8.60;;;;;;;19.90;60.03;100468.88;5065366;28;20337;-72
2021/09/06 02:38:57;;;;;;;13.73;7.05;;;;;;;19.85;60.31;100471.38;5083156;28;20056;-72
2021/09/06 02:41:23;;;;;;;11.38;7.63;;;;;;;19.72;60.62;100475.66;5083474;28;20074;-72
2021/09/06 02:43:48;;;;;;;12.02;7.10;;;;;;;19.76;60.68;100482.28;5065045;28;20039;-72
2021/09/06 02:46:14;;;;;;;14.52;7.38;;;;;;;19.83;60.66;100485.00;5083090;28;20102;-72
2021/09/06 02:48:39;;;;;;;20.08;7.95;;;;;;;19.86;60.74;100484.59;5082796;28;20047;-72
2021/09/06 02:51:05;;;;;;;11.60;7.30;;;;;;;19.91;60.55;100479.44;5082860;28;20264;-72
2021/09/06 02:53:30;;;;;;;12.48;6.47;;;;;;;19.87;60.57;100470.13;5082720;28;20033;-72
2021/09/06 02:55:55;;;;;;;12.20;7.45;;;;;;;19.60;61.50;100477.28;5083067;28;20079;-72
2021/09/06 02:58:21;;;;;;;15.35;7.40;;;;;;;19.76;61.01;100478.75;5082707;28;20036;-73
2021/09/06 03:00:46;;;;;;;12.60;7.50;;;;;;;19.81;61.16;100486.25;5083249;28;20036;-73
2021/09/06 03:03:12;;;;;;;15.27;7.40;;;;;;;19.78;61.55;100482.09;5082783;28;20040;-72
2021/09/06 03:05:38;;;;;;;17.00;8.00;;;;;;;19.74;61.43;100483.50;5082895;28;20031;-72
2021/09/06 03:08:03;;;;;;;14.27;7.60;;;;;;;19.72;61.67;100485.56;5082673;28;20036;-72
2021/09/06 03:10:29;;;;;;;12.18;7.57;;;;;;;19.66;62.05;100481.84;5064762;28;20048;-72
2021/09/06 03:12:55;;;;;;;13.80;8.52;;;;;;;19.69;61.70;100486.81;5082334;28;20037;-73
2021/09/06 03:15:21;;;;;;;11.60;8.23;;;;;;;19.61;62.07;100478.13;5082862;28;20036;-72
2021/09/06 03:17:46;;;;;;;12.80;7.63;;;;;;;19.68;62.37;100490.53;5076090;28;20029;-72
2021/09/06 03:20:12;;;;;;;13.00;7.82;;;;;;;19.64;62.59;100496.50;5072539;28;21146;-72
2021/09/06 03:22:37;;;;;;;12.05;7.18;;;;;;;19.63;62.37;100479.56;5063156;28;20256;-73
2021/09/06 03:25:03;;;;;;;15.18;8.27;;;;;;;19.65;62.74;100490.09;5074127;28;20051;-73
2021/09/06 03:27:30;;;;;;;13.68;7.97;;;;;;;19.49;63.35;100491.28;5053143;28;20096;-73
2021/09/06 03:29:55;;;;;;;15.40;8.20;;;;;;;19.52;62.68;100498.97;5071778;28;20040;-73
2021/09/06 03:32:21;;;;;;;15.20;7.53;;;;;;;19.31;63.65;100475.72;5067865;28;20032;-73
2021/09/06 03:34:46;;;;;;;15.95;7.63;;;;;;;19.48;63.59;100495.00;5070822;28;20314;-72
2021/09/06 03:37:12;;;;;;;15.35;7.70;;;;;;;19.49;63.18;100496.66;5056537;28;20219;-73
2021/09/06 03:39:37;;;;;;;14.70;7.82;;;;;;;19.46;63.81;100500.56;5062506;28;20020;-72
2021/09/06 03:42:03;;;;;;;13.85;7.63;;;;;;;19.51;63.30;100505.31;5063732;28;20055;-72
2021/09/06 03:44:28;;;;;;;13.18;8.57;;;;;;;19.52;62.81;100504.31;5060537;28;20029;-72
2021/09/06 03:46:55;;;;;;;14.73;7.85;;;;;;;19.56;62.87;100510.97;5073897;28;20047;-73
2021/09/06 03:49:20;;;;;;;12.68;7.53;;;;;;;19.56;62.36;100515.50;5070279;28;20198;-73
2021/09/06 03:51:46;;;;;;;16.60;8.32;;;;;;;19.55;62.26;100525.41;5067671;28;20044;-72
2021/09/06 03:54:12;;;;;;;14.38;8.20;;;;;;;19.54;62.24;100522.94;5066051;28;20025;-72
2021/09/06 03:56:37;;;;;;;15.35;8.70;;;;;;;19.38;62.69;100522.22;5052538;28;20028;-72
2021/09/06 03:59:03;;;;;;;15.80;7.80;;;;;;;19.30;63.10;100522.41;5054837;28;20020;-72
2021/09/06 04:01:28;;;;;;;20.98;8.80;;;;;;;19.43;63.09;100533.19;5071088;28;20035;-72
2021/09/06 04:03:54;;;;;;;22.10;7.85;;;;;;;19.43;63.05;100517.06;5069235;28;20044;-72
2021/09/06 04:06:19;;;;;;;16.17;8.30;;;;;;;19.52;62.66;100524.97;5047788;28;20032;-72
2021/09/06 04:08:45;;;;;;;17.27;8.32;;;;;;;19.35;63.23;100519.09;5060667;28;20036;-72
2021/09/06 04:11:10;;;;;;;15.48;8.60;;;;;;;19.20;64.03;100532.69;5060483;28;20033;-73
2021/09/06 04:13:36;;;;;;;20.25;8.65;;;;;;;19.17;64.26;100534.94;5066180;28;20039;-73
2021/09/06 04:16:02;;;;;;;25.17;8.88;;;;;;;19.15;64.48;100527.06;5066256;28;20029;-72
2021/09/06 04:18:27;;;;;;;20.42;8.80;;;;;;;19.45;63.61;100541.88;5056342;28;20032;-72
2021/09/06 04:20:55;;;;;;;18.80;9.07;;;;;;;19.14;64.86;100542.34;5068219;28;20079;-73
2021/09/06 04:23:20;;;;;;;22.75;9.20;;;;;;;19.23;64.59;100532.28;5045550;28;20361;-72
2021/09/06 04:25:45;;;;;;;19.15;7.80;;;;;;;19.35;64.63;100537.91;5062806;28;20040;-73
2021/09/06 04:28:11;;;;;;;15.80;9.40;;;;;;;19.38;64.33;100534.81;5067804;28;20315;-73
2021/09/06 04:30:36;;;;;;;20.95;8.60;;;;;;;19.40;64.62;100538.97;5058117;28;20039;-73
2021/09/06 04:33:02;;;;;;;15.98;8.98;;;;;;;19.51;64.13;100537.56;5080181;28;20265;-72
2021/09/06 04:35:27;;;;;;;19.15;8.93;;;;;;;19.24;64.83;100533.94;5067142;28;20028;-72
2021/09/06 04:37:53;;;;;;;22.23;9.27;;;;;;;19.16;65.46;100528.72;5075072;28;20032;-72
2021/09/06 04:40:18;;;;;;;17.88;9.07;;;;;;;19.27;65.23;100536.22;5076187;28;20302;-73
2021/09/06 04:42:44;;;;;;;18.15;8.73;;;;;;;19.34;65.10;100529.03;5077318;28;20081;-72
2021/09/06 04:45:09;;;;;;;17.92;8.75;;;;;;;19.34;65.38;100553.19;5055857;28;20025;-73
2021/09/06 04:47:35;;;;;;;20.98;9.35;;;;;;;19.45;65.01;100549.94;5074291;28;20028;-72
2021/09/06 04:50:01;;;;;;;17.27;8.63;;;;;;;19.40;65.12;100549.72;5075121;28;20043;-73
2021/09/06 04:52:27;;;;;;;20.08;9.43;;;;;;;19.22;65.89;100554.78;5074089;28;20036;-72
2021/09/06 04:54:52;;;;;;;20.20;8.85;;;;;;;19.30;65.81;100559.16;5056948;28;20024;-72
2021/09/06 04:57:17;;;;;;;19.90;9.40;;;;;;;19.47;65.49;100563.16;5079356;28;20036;-72
2021/09/06 04:59:43;;;;;;;19.95;8.90;;;;;;;19.56;65.04;100561.16;5071576;28;20039;-72
2021/09/06 05:02:08;;;;;;;19.88;8.90;;;;;;;19.80;64.47;100568.72;5074148;28;20032;-73
2021/09/06 05:04:34;;;;;;;35.75;9.23;;;;;;;19.98;63.67;100568.97;5068109;28;20025;-72
2021/09/06 05:06:59;;;;;;;35.03;9.70;;;;;;;20.07;63.48;100567.75;5084022;28;20042;-72
2021/09/06 05:09:25;;;;;;;20.42;8.93;;;;;;;20.16;63.08;100564.88;5082069;28;20029;-72
2021/09/06 05:11:51;;;;;;;25.35;9.38;;;;;;;19.93;63.82;100558.00;5054697;28;20044;-73
2021/09/06 05:14:17;;;;;;;26.10;9.80;;;;;;;19.93;64.00;100558.00;5076699;28;20039;-72
2021/09/06 05:16:42;;;;;;;19.70;9.07;;;;;;;19.97;63.79;100564.63;5068223;28;20037;-73
2021/09/06 05:19:08;;;;;;;17.40;9.02;;;;;;;20.29;62.63;100557.66;5067881;28;20063;-73
2021/09/06 05:21:34;;;;;;;35.25;21.05;;;;;;;20.45;62.49;100561.00;5073255;28;20044;-73
2021/09/06 05:23:59;;;;;;;23.35;12.27;;;;;;;20.61;61.82;100572.19;5068148;28;20463;-72
2021/09/06 05:26:26;;;;;;;32.60;18.40;;;;;;;20.56;62.64;100563.06;5073785;28;20032;-72
2021/09/06 05:28:51;;;;;;;30.00;12.20;;;;;;;20.59;62.01;100566.19;5080744;28;20211;-73
2021/09/06 05:31:18;;;;;;;36.65;19.70;;;;;;;20.71;61.81;100571.75;5083543;28;20031;-73
2021/09/06 05:33:43;;;;;;;51.70;30.45;;;;;;;20.87;61.11;100575.91;5073339;28;20025;-72
2021/09/06 05:36:12;;;;;;;63.42;36.40;;;;;;;20.88;60.75;100577.56;5077409;28;20107;-73
2021/09/06 05:38:38;;;;;;;24.23;14.45;;;;;;;20.86;60.97;100575.09;5060320;28;20097;-72
2021/09/06 05:41:03;;;;;;;17.77;8.40;;;;;;;20.68;62.07;100572.19;5075634;28;20269;-73
2021/09/06 05:43:29;;;;;;;13.98;9.00;;;;;;;20.90;61.41;100572.81;5072138;28;20272;-73
2021/09/06 05:45:54;;;;;;;20.10;9.98;;;;;;;21.01;60.83;100567.63;5070826;28;20033;-73
2021/09/06 05:48:20;;;;;;;25.70;14.02;;;;;;;20.73;61.54;100558.94;5071722;28;20399;-73
2021/09/06 05:50:45;;;;;;;33.47;17.65;;;;;;;20.75;61.57;100567.63;5070895;28;20055;-73
2021/09/06 05:53:12;;;;;;;21.67;9.90;;;;;;;20.80;61.14;100567.81;5072973;28;20029;-73
2021/09/06 05:55:37;;;;;;;23.30;11.52;;;;;;;21.04;60.72;100569.06;5053081;28;20093;-73
2021/09/06 05:58:03;;;;;;;15.57;8.57;;;;;;;21.24;60.34;100572.56;5070594;28;20032;-73
2021/09/06 06:00:28;;;;;;;20.02;8.30;;;;;;;21.25;60.66;100579.59;5059763;28;20024;-73
2021/09/06 06:02:53;;;;;;;16.80;8.20;;;;;;;21.16;60.09;100575.44;5063009;28;20033;-72
2021/09/06 06:05:19;;;;;;;12.85;8.35;;;;;;;21.06;61.00;100574.22;5076808;28;20030;-72
2021/09/06 06:07:44;;;;;;;16.83;8.05;;;;;;;21.22;60.59;100588.09;5072516;28;20260;-72
2021/09/06 06:10:10;;;;;;;16.55;8.27;;;;;;;21.27;60.56;100591.00;5070519;28;20323;-72
2021/09/06 06:12:36;;;;;;;14.52;8.50;;;;;;;21.17;60.51;100587.88;5079160;28;20103;-73
2021/09/06 06:15:01;;;;;;;12.82;8.18;;;;;;;21.03;59.03;100587.06;5080155;28;20020;-72
2021/09/06 06:17:27;;;;;;;14.13;8.45;;;;;;;21.22;60.31;100581.84;5070813;28;20029;-73
2021/09/06 06:19:52;;;;;;;21.75;10.30;;;;;;;21.66;59.44;100591.91;5064855;28;20269;-73
2021/09/06 06:22:18;;;;;;;17.25;8.18;;;;;;;21.79;56.48;100591.00;5066771;28;20320;-73
2021/09/06 06:24:44;;;;;;;22.20;8.73;;;;;;;21.99;56.74;100597.16;5070284;28;20361;-72
2021/09/06 06:27:10;;;;;;;15.32;7.97;;;;;;;22.33;53.94;100600.50;5064638;28;20075;-73
2021/09/06 06:29:36;;;;;;;14.73;7.65;;;;;;;22.63;53.10;100598.81;5074734;28;20029;-73
2021/09/06 06:32:01;;;;;;;12.70;7.53;;;;;;;22.70;52.85;100601.47;5079461;28;20270;-73
2021/09/06 06:34:27;;;;;;;15.23;8.02;;;;;;;22.93;52.30;100601.72;5074303;28;20095;-73
2021/09/06 06:36:52;;;;;;;14.20;7.72;;;;;;;23.02;51.90;100604.97;5067680;28;20326;-73
2021/09/06 06:39:18;;;;;;;14.30;8.05;;;;;;;23.52;50.71;100605.69;5069205;28;20052;-73
2021/09/06 06:41:46;;;;;;;10.63;6.40;;;;;;;23.79;48.84;100598.94;5080068;28;20041;-73
2021/09/06 06:44:11;;;;;;;13.50;6.55;;;;;;;23.95;48.63;100612.91;5082082;28;20036;-73
2021/09/06 06:46:36;;;;;;;10.27;6.35;;;;;;;24.25;46.16;100610.19;5079282;28;20137;-73
2021/09/06 06:49:02;;;;;;;12.45;6.53;;;;;;;24.29;44.89;100608.72;5065392;28;20029;-73
2021/09/06 06:51:27;;;;;;;12.07;6.40;;;;;;;23.65;46.71;100627.19;5070817;28;20043;-72
2021/09/06 06:53:53;;;;;;;12.82;7.50;;;;;;;23.13;47.75;100626.69;5068420;28;20040;-73
2021/09/06 06:56:20;;;;;;;11.43;6.60;;;;;;;23.41;46.85;100623.47;5056211;28;20108;-73
2021/09/06 06:58:45;;;;;;;12.85;6.90;;;;;;;23.76;45.79;100623.72;5052871;28;20203;-73
2021/09/06 07:01:11;;;;;;;11.98;7.05;;;;;;;23.43;47.27;100621.38;5072544;28;20036;-73
2021/09/06 07:03:36;;;;;;;12.82;6.38;;;;;;;23.32;46.22;100622.13;5071613;28;20207;-73
2021/09/06 07:06:01;;;;;;;11.95;6.82;;;;;;;22.84;47.68;100613.84;5070354;28;20428;-73
2021/09/06 07:08:27;;;;;;;12.00;5.85;;;;;;;22.65;45.69;100629.13;5074973;28;20027;-73
2021/09/06 07:10:52;;;;;;;8.43;6.22;;;;;;;22.34;48.27;100639.94;5053955;28;20040;-73
2021/09/06 07:13:18;;;;;;;11.35;6.10;;;;;;;21.71;48.65;100627.13;5069690;28;20029;-72
2021/09/06 07:15:43;;;;;;;9.60;6.53;;;;;;;21.54;51.23;100621.38;5062296;28;20025;-72
2021/09/06 07:18:09;;;;;;;10.05;7.07;;;;;;;21.75;50.07;100625.66;5068039;28;20040;-72
2021/09/06 07:20:35;;;;;;;12.48;7.10;;;;;;;21.84;50.45;100632.47;5071647;28;20021;-72
2021/09/06 07:23:01;;;;;;;14.10;6.63;;;;;;;21.86;50.33;100626.88;5063994;28;20043;-72
2021/09/06 07:25:26;;;;;;;10.52;5.60;;;;;;;21.75;49.13;100635.59;5063741;28;20401;-72
2021/09/06 07:27:52;;;;;;;9.98;6.82;;;;;;;21.89;47.50;100634.53;5046804;28;20029;-72
2021/09/06 07:30:17;;;;;;;15.20;6.70;;;;;;;22.23;47.35;100636.88;5054406;28;20331;-72
2021/09/06 07:32:44;;;;;;;8.82;6.00;;;;;;;22.51;47.59;100641.88;5045084;28;20108;-72
2021/09/06 07:35:10;;;;;;;9.70;5.82;;;;;;;22.03;45.72;100641.56;5049706;28;20021;-72
2021/09/06 07:37:35;;;;;;;11.93;6.10;;;;;;;22.11;47.11;100638.63;5048517;28;20033;-72
2021/09/06 07:40:01;;;;;;;12.02;6.20;;;;;;;22.23;46.80;100644.16;5053735;28;20063;-72
2021/09/06 07:42:26;;;;;;;13.68;6.18;;;;;;;22.34;47.39;100648.03;5051543;28;20330;-72
2021/09/06 07:44:52;;;;;;;15.38;5.97;;;;;;;22.25;45.41;100628.56;5046946;28;20071;-72
2021/09/06 07:47:17;;;;;;;13.10;7.22;;;;;;;22.11;46.68;100644.00;5044070;28;20029;-72
2021/09/06 07:49:45;;;;;;;9.18;6.15;;;;;;;22.16;46.88;100636.09;5043023;28;20025;-73
2021/09/06 07:52:11;;;;;;;8.73;6.13;;;;;;;21.84;46.84;100650.50;5048807;28;20048;-72
2021/09/06 07:54:36;;;;;;;10.45;6.07;;;;;;;21.94;45.80;100649.03;5042882;28;20040;-72
2021/09/06 07:57:02;;;;;;;11.48;6.40;;;;;;;21.87;46.33;100642.84;5061966;28;20033;-72
2021/09/06 07:59:27;;;;;;;13.00;5.90;;;;;;;21.45;47.78;100665.75;5060343;28;20035;-72
2021/09/06 08:01:53;;;;;;;10.85;6.50;;;;;;;21.62;48.41;100664.25;5061938;28;20330;-72
2021/09/06 08:04:18;;;;;;;10.88;5.72;;;;;;;21.70;48.69;100662.38;5061951;28;20261;-72
2021/09/06 08:06:45;;;;;;;9.73;6.43;;;;;;;21.88;48.37;100657.16;5060768;28;20062;-72
2021/09/06 08:09:11;;;;;;;11.35;6.15;;;;;;;21.74;47.58;100631.25;5071670;28;20021;-72
2021/09/06 08:11:36;;;;;;;10.82;6.10;;;;;;;21.90;48.10;100653.19;5075123;28;20310;-72
2021/09/06 08:14:02;;;;;;;38.53;7.35;;;;;;;21.97;48.27;100650.47;5060601;28;20329;-72
2021/09/06 08:16:28;;;;;;;13.38;6.15;;;;;;;21.91;48.28;100656.72;5060607;28;20048;-72
2021/09/06 08:18:53;;;;;;;10.57;5.93;;;;;;;22.06;48.27;100653.78;5060744;28;20028;-72
2021/09/06 08:21:19;;;;;;;12.98;7.05;;;;;;;22.01;47.88;100649.00;5060302;28;20067;-72
2021/09/06 08:23:44;;;;;;;13.27;6.93;;;;;;;22.25;47.29;100653.69;5077261;28;20025;-72
2021/09/06 08:26:10;;;;;;;12.23;7.10;;;;;;;21.87;47.74;100633.94;5081688;28;20051;-72
2021/09/06 08:28:37;;;;;;;12.80;6.70;;;;;;;22.37;47.41;100653.81;5061783;28;20021;-72
2021/09/06 08:31:03;;;;;;;13.00;6.80;;;;;;;22.60;46.72;100647.84;5080528;28;20040;-72
2021/09/06 08:33:29;;;;;;;11.82;6.55;;;;;;;22.95;46.56;100658.22;5080493;28;20310;-72
2021/09/06 08:35:55;;;;;;;8.20;5.93;;;;;;;22.93;45.16;100656.56;5080414;28;20044;-72
2021/09/06 08:38:20;;;;;;;12.60;6.85;;;;;;;22.77;44.97;100650.84;5080656;28;20505;-73
2021/09/06 08:40:46;;;;;;;10.48;6.25;;;;;;;22.88;44.27;100659.09;5061257;28;20029;-72
2021/09/06 08:43:12;;;;;;;9.70;5.88;;;;;;;22.73;44.04;100655.84;5080498;28;20108;-73
2021/09/06 08:45:38;;;;;;;10.88;6.13;;;;;;;22.71;45.35;100654.41;5080419;28;20025;-72
2021/09/06 08:48:05;;;;;;;14.00;6.53;;;;;;;23.08;45.38;100653.53;5061211;28;20389;-73
2021/09/06 08:50:34;;;;;;;13.70;7.05;;;;;;;23.44;44.07;100646.53;5080191;28;20067;-72
2021/09/06 08:53:01;;;;;;;12.50;6.32;;;;;;;24.12;41.72;100640.97;5073801;28;20028;-72
2021/09/06 08:55:27;;;;;;;11.30;5.80;;;;;;;24.51;41.04;100645.84;5081763;28;20166;-72
2021/09/06 08:57:53;;;;;;;13.93;5.90;;;;;;;24.75;39.64;100643.19;5080553;28;20068;-73
2021/09/06 09:00:27;;;;;;;7.85;5.13;;;;;;;24.75;36.45;100643.19;5079922;28;20082;-72
2021/09/06 09:02:52;;;;;;;6.97;4.93;;;;;;;24.75;36.98;100644.00;5080389;28;20107;-73
2021/09/06 09:05:18;;;;;;;11.07;5.00;;;;;;;24.35;37.75;100634.84;5061082;28;20025;-72
2021/09/06 09:07:44;;;;;;;10.05;5.80;;;;;;;23.82;39.00;100646.31;5079720;28;20050;-72
2021/09/06 09:10:12;;;;;;;8.55;5.35;;;;;;;23.94;38.86;100646.41;5061833;28;20440;-72
2021/09/06 09:12:39;;;;;;;11.98;6.07;;;;;;;24.27;38.83;100629.75;5080278;28;20029;-73
2021/09/06 09:15:07;;;;;;;7.28;5.20;;;;;;;24.32;38.29;100643.44;5061445;28;20195;-72
2021/09/06 09:17:34;;;;;;;10.52;5.50;;;;;;;24.32;37.47;100625.31;5082150;28;20048;-72
2021/09/06 09:20:04;;;;;;;10.70;5.25;;;;;;;24.11;39.23;100631.19;5083691;28;20095;-72
2021/09/06 09:22:33;;;;;;;9.77;5.82;;;;;;;23.98;38.62;100610.56;5083276;28;20036;-72
2021/09/06 09:25:06;;;;;;;12.60;5.93;;;;;;;24.29;39.71;100625.78;5083434;28;20082;-73
2021/09/06 09:27:34;;;;;;;13.27;5.85;;;;;;;24.01;39.63;100628.22;5075762;28;20214;-72
2021/09/06 09:30:01;;;;;;;12.07;6.03;;;;;;;24.07;40.56;100630.00;5086623;28;20052;-72
2021/09/06 09:32:27;;;;;;;8.82;6.13;;;;;;;24.13;39.31;100627.22;5083996;28;20028;-72
2021/09/06 09:34:53;;;;;;;8.40;5.57;;;;;;;23.97;38.15;100610.78;5083432;28;20028;-72
2021/09/06 09:37:27;;;;;;;9.43;5.35;;;;;;;23.99;37.91;100616.81;5083614;28;20029;-72
2021/09/06 09:39:57;;;;;;;8.48;5.43;;;;;;;23.85;37.79;100624.22;5083654;28;20048;-72
2021/09/06 09:42:23;;;;;;;8.20;4.90;;;;;;;24.13;37.30;100616.38;5084313;28;20151;-73
2021/09/06 09:44:55;;;;;;;15.10;5.88;;;;;;;23.88;37.14;100629.19;5090816;28;20318;-72
2021/09/06 09:47:23;;;;;;;9.07;5.65;;;;;;;24.18;38.68;100616.53;5064374;28;20079;-72
2021/09/06 09:49:50;;;;;;;18.95;6.07;;;;;;;24.17;36.69;100620.28;5083044;28;20036;-72
2021/09/06 09:52:17;;;;;;;8.43;5.30;;;;;;;23.61;37.48;100619.75;5083068;28;20078;-72
2021/09/06 09:54:43;;;;;;;7.63;5.07;;;;;;;23.76;37.81;100614.78;5083134;28;20097;-73
2021/09/06 09:57:11;;;;;;;12.23;5.68;;;;;;;23.72;36.83;100616.28;5083439;28;20345;-73
2021/09/06 09:59:37;;;;;;;10.00;5.80;;;;;;;23.74;36.37;100606.06;5072907;28;20215;-73
2021/09/06 10:02:17;;;;;;;9.27;5.10;;;;;;;24.07;36.58;100611.91;5092438;28;20062;-73
2021/09/06 10:04:55;;;;;;;11.48;5.38;;;;;;;24.17;34.81;100593.22;5082935;28;20024;-73
2021/09/06 10:07:24;;;;;;;9.25;4.93;;;;;;;24.01;34.45;100598.47;5083631;28;20028;-72
2021/09/06 10:09:50;;;;;;;8.80;4.95;;;;;;;24.00;34.21;100599.53;5083076;28;20040;-72
2021/09/06 10:12:24;;;;;;;8.38;5.05;;;;;;;24.19;35.10;100604.66;5080631;28;20037;-72
2021/09/06 10:14:50;;;;;;;11.07;5.85;;;;;;;24.32;35.99;100605.53;5075391;28;20060;-73
2021/09/06 10:17:15;;;;;;;7.53;5.30;;;;;;;24.31;36.62;100590.34;5072174;28;20039;-73
2021/09/06 10:19:49;;;;;;;12.52;5.70;;;;;;;24.29;36.75;100578.94;5077505;28;20263;-73
2021/09/06 10:22:28;;;;;;;10.57;5.25;;;;;;;24.60;35.20;100575.94;5075276;28;20028;-73
2021/09/06 10:24:54;;;;;;;8.23;5.65;;;;;;;24.39;37.19;100584.59;5082554;28;20073;-73
2021/09/06 10:27:20;;;;;;;8.73;5.40;;;;;;;24.14;36.82;100584.75;5076560;28;20434;-72
2021/09/06 10:29:56;;;;;;;8.32;5.30;;;;;;;24.07;37.73;100589.44;5064895;28;20338;-72
2021/09/06 10:32:32;;;;;;;10.63;5.72;;;;;;;24.13;37.49;100575.81;5074031;28;20032;-73
2021/09/06 10:35:08;;;;;;;10.20;5.28;;;;;;;24.62;36.25;100578.41;5064999;28;20033;-73
2021/09/06 10:37:35;;;;;;;9.20;5.50;;;;;;;24.58;35.78;100583.47;5064756;28;20114;-73
2021/09/06 10:40:07;;;;;;;9.43;5.47;;;;;;;24.60;35.89;100573.22;5065995;28;20321;-73
2021/09/06 10:42:34;;;;;;;10.02;5.82;;;;;;;24.54;36.33;100582.28;5074076;28;20028;-72
2021/09/06 10:45:03;;;;;;;8.90;5.50;;;;;;;24.37;36.65;100571.31;5066124;28;20036;-73
2021/09/06 10:47:40;;;;;;;7.07;5.18;;;;;;;24.26;36.98;100579.38;5077030;28;20029;-72
2021/09/06 10:50:19;;;;;;;7.78;5.28;;;;;;;24.73;36.92;100574.88;5075904;28;20020;-72
2021/09/06 10:52:47;;;;;;;9.07;5.75;;;;;;;24.92;37.10;100565.56;5073301;28;20093;-73
2021/09/06 10:55:14;;;;;;;8.02;5.32;;;;;;;24.45;36.63;100559.31;5074379;28;20032;-73
2021/09/06 10:57:41;;;;;;;13.00;5.82;;;;;;;24.65;36.58;100569.81;5073289;28;20092;-73
2021/09/06 11:00:13;;;;;;;12.63;6.03;;;;;;;24.55;37.00;100567.69;5076684;28;20056;-73
2021/09/06 11:02:40;;;;;;;8.27;5.20;;;;;;;24.35;37.80;100565.28;5068814;28;20116;-73
2021/09/06 11:05:06;;;;;;;8.90;5.82;;;;;;;24.27;37.94;100545.88;5072960;28;20150;-73
2021/09/06 11:07:32;;;;;;;12.23;5.25;;;;;;;24.79;37.04;100563.94;5065256;28;20260;-73
2021/09/06 11:10:10;;;;;;;6.95;5.07;;;;;;;24.73;36.34;100564.88;5074545;28;20040;-73
2021/09/06 11:12:37;;;;;;;11.10;5.70;;;;;;;24.38;37.90;100556.72;5077867;28;20120;-73
2021/09/06 11:15:03;;;;;;;40.53;6.78;;;;;;;24.63;36.24;100550.25;5071315;28;20090;-73